Linhares, Brazil
Current Conditions -  °F | °C
As of 7:00 PM on Friday 28 Nov 2014 (Local Time) from SBVT Reporting Station
Light Rain Light Rain  
Wind Chill: 73°   Ceiling: 1000
Heat Index: 73°   Visibility: 4mi
Dew Point: 68°   Wind: 8mph
Humidity: 83%   Direction: 180°S
Pressure: 29.94"   Gusts: NA
Location:  19.39°S, 40.05°W
Report Text: SBVT 282100Z 18007KT 7000 -RA SCT007 BKN010 OVC025 23/20 Q1014
Loading
Personal Weather Stations






























Interactive Weather Map New forecast layout! Learn more

10-Day Weather Forecast

Advertisements
Track Severe Weather on mobile